Time;durP1;ratioP1;P1;durP2;ratioP2;P2;SDS_P1;SDS_P2;PMS_P1;PMS_P2;Temp;Humidity;BMP_temperature;BMP_pressure;BME280_temperature;BME280_humidity;BME280_pressure;Samples;Min_cycle;Max_cycle;Signal;HPM_P1;HPM_P2
2022/06/28 00:00:18;;;;;;;467.67;439.65;;;13.60;99.90;;;;;;5095236;28;20056;-60
2022/06/28 00:02:44;;;;;;;603.35;560.60;;;13.60;99.90;;;;;;5112205;28;20044;-60
2022/06/28 00:05:10;;;;;;;704.88;654.05;;;13.60;99.90;;;;;;5113653;28;20047;-60
2022/06/28 00:07:37;;;;;;;475.02;445.42;;;13.60;99.90;;;;;;5113633;28;20062;-60
2022/06/28 00:10:04;;;;;;;403.15;380.52;;;13.40;99.90;;;;;;5112284;28;20043;-60
2022/06/28 00:12:30;;;;;;;391.85;368.58;;;13.30;99.90;;;;;;5112784;28;20392;-59
2022/06/28 00:17:40;;;;;;;450.35;420.38;;;13.00;99.90;;;;;;5112425;28;20044;-60
2022/06/28 00:20:07;;;;;;;456.85;427.52;;;13.00;99.90;;;;;;5113195;28;20047;-59
2022/06/28 00:22:32;;;;;;;431.23;404.00;;;12.90;99.90;;;;;;5110081;28;20040;-59
2022/06/28 00:24:58;;;;;;;476.05;443.92;;;12.90;99.90;;;;;;5105731;28;20039;-60
2022/06/28 00:27:24;;;;;;;433.02;407.05;;;13.00;99.90;;;;;;5113118;28;20477;-60
2022/06/28 00:29:50;;;;;;;439.00;412.95;;;13.00;99.90;;;;;;5112888;28;20472;-60
2022/06/28 00:32:16;;;;;;;471.58;442.50;;;13.00;99.90;;;;;;5094217;28;20405;-60
2022/06/28 00:34:42;;;;;;;424.08;397.60;;;13.00;99.90;;;;;;5094699;28;20516;-60
2022/06/28 00:37:08;;;;;;;440.70;412.30;;;13.00;99.90;;;;;;5095199;28;20044;-59
2022/06/28 00:39:34;;;;;;;433.27;404.98;;;12.90;99.90;;;;;;5111737;28;20055;-59
2022/06/28 00:41:59;;;;;;;437.27;410.00;;;12.90;99.90;;;;;;5097271;28;20067;-60
2022/06/28 00:44:26;;;;;;;487.27;457.73;;;12.90;99.90;;;;;;5116815;28;20101;-59
2022/06/28 00:46:52;;;;;;;543.30;508.30;;;12.90;99.90;;;;;;5117015;28;20042;-60
2022/06/28 00:49:19;;;;;;;441.75;414.70;;;12.90;99.90;;;;;;5116963;28;20097;-60
2022/06/28 00:51:45;;;;;;;433.98;408.83;;;12.90;99.90;;;;;;5098164;28;20044;-60
2022/06/28 00:54:10;;;;;;;482.90;452.00;;;12.90;99.90;;;;;;5116681;28;20047;-59
2022/06/28 00:56:36;;;;;;;448.63;422.35;;;12.90;99.90;;;;;;5116824;28;20047;-60
2022/06/28 00:59:02;;;;;;;445.08;419.08;;;12.80;99.90;;;;;;5098259;28;20048;-60
2022/06/28 01:01:29;;;;;;;433.48;408.85;;;12.90;99.90;;;;;;5098565;28;20171;-60
2022/06/28 01:03:57;;;;;;;553.83;517.85;;;12.80;99.90;;;;;;5116861;28;20054;-60
2022/06/28 01:06:23;;;;;;;439.70;414.98;;;12.80;99.90;;;;;;5097566;28;20039;-60
2022/06/28 01:08:49;;;;;;;400.08;377.30;;;12.70;99.90;;;;;;5098054;28;20058;-59
2022/06/28 01:11:18;;;;;;;402.23;379.83;;;12.70;99.90;;;;;;5098611;28;20086;-60
2022/06/28 01:13:49;;;;;;;504.50;473.23;;;12.70;99.90;;;;;;5097402;28;20062;-59
2022/06/28 01:16:16;;;;;;;614.95;573.75;;;12.60;99.90;;;;;;5098243;28;20509;-60
2022/06/28 01:18:43;;;;;;;558.08;522.58;;;12.60;99.90;;;;;;5098473;28;20040;-60
2022/06/28 01:21:27;;;;;;;668.20;623.25;;;12.60;99.90;;;;;;5097514;28;20131;-60
2022/06/28 01:23:55;;;;;;;590.35;552.33;;;12.50;99.90;;;;;;5097524;28;20047;-60
2022/06/28 01:26:37;;;;;;;;;;;12.60;99.90;;;;;;5098400;28;20131;-60
2022/06/28 01:29:03;;;;;;;498.25;463.67;;;12.40;99.90;;;;;;5116198;28;19916;-59
2022/06/28 01:31:45;;;;;;;633.35;583.88;;;12.40;99.90;;;;;;5097152;28;20417;-60
2022/06/28 01:34:12;;;;;;;580.88;544.20;;;12.30;99.90;;;;;;5115684;28;20040;-60
2022/06/28 01:36:38;;;;;;;580.03;542.92;;;12.30;99.90;;;;;;5116506;28;20043;-60
2022/06/28 01:39:06;;;;;;;784.70;730.03;;;12.30;99.90;;;;;;5080590;28;20052;-60
2022/06/28 01:41:32;;;;;;;677.97;631.75;;;12.20;99.90;;;;;;5097046;28;20035;-60
2022/06/28 01:44:04;;;;;;;684.95;636.83;;;12.20;99.90;;;;;;5097570;28;20091;-60
2022/06/28 01:46:32;;;;;;;799.00;739.25;;;12.10;99.90;;;;;;5097782;28;20040;-59
2022/06/28 01:49:04;;;;;;;807.67;748.22;;;12.30;99.90;;;;;;5079715;28;20104;-60
2022/06/28 01:51:31;;;;;;;801.28;741.60;;;12.30;99.90;;;;;;5097742;28;20371;-60
2022/06/28 01:53:58;;;;;;;716.55;662.47;;;12.40;99.90;;;;;;5097385;28;20039;-60
2022/06/28 01:56:31;;;;;;;714.92;664.65;;;12.40;99.90;;;;;;5097113;28;20048;-59
2022/06/28 01:59:03;;;;;;;646.97;599.78;;;12.40;99.90;;;;;;5097516;28;20048;-59
2022/06/28 02:01:40;;;;;;;672.03;621.92;;;12.50;99.90;;;;;;5097127;28;20048;-59
2022/06/28 02:04:18;;;;;;;731.78;675.30;;;12.50;99.90;;;;;;5080142;28;20051;-60
2022/06/28 02:06:45;;;;;;;703.95;655.20;;;12.50;99.90;;;;;;5096968;28;20044;-60
2022/06/28 02:09:11;;;;;;;689.35;642.97;;;12.50;99.90;;;;;;5096408;28;20587;-59
2022/06/28 02:11:43;;;;;;;617.08;576.38;;;12.60;99.90;;;;;;5114075;28;20040;-60
2022/06/28 02:14:10;;;;;;;535.67;500.95;;;12.50;99.90;;;;;;5097361;28;20035;-60
2022/06/28 02:16:36;;;;;;;553.60;516.95;;;12.60;99.90;;;;;;5096066;28;20039;-60
2022/06/28 02:19:03;;;;;;;525.63;493.25;;;12.60;99.90;;;;;;5096486;28;20042;-59
2022/06/28 02:21:41;;;;;;;503.77;472.55;;;12.60;99.90;;;;;;5079734;28;20043;-59
2022/06/28 02:24:08;;;;;;;520.78;488.58;;;12.60;99.90;;;;;;5080006;28;20052;-59
2022/06/28 02:26:36;;;;;;;513.13;481.42;;;12.80;99.90;;;;;;5096747;28;20035;-59
2022/06/28 02:29:04;;;;;;;583.70;547.58;;;12.70;99.90;;;;;;5115395;28;20079;-60
2022/06/28 02:31:32;;;;;;;561.20;525.97;;;12.70;99.90;;;;;;5096268;28;20055;-60
2022/06/28 02:33:58;;;;;;;647.85;602.65;;;12.70;99.90;;;;;;5096427;28;20124;-60
2022/06/28 02:40:21;;;;;;;677.05;632.97;;;12.70;99.90;;;;;;5114437;28;20047;-59
2022/06/28 02:41:54;;;;;;;655.97;613.47;;;12.60;99.90;;;;;;5096232;28;20130;-60
2022/06/28 02:44:20;;;;;;;621.63;580.83;;;12.60;99.90;;;;;;5113936;28;20043;-60
2022/06/28 02:46:47;;;;;;;489.40;459.38;;;12.60;99.90;;;;;;5115038;28;20048;-60
2022/06/28 02:49:14;;;;;;;560.10;523.67;;;12.60;99.90;;;;;;5096801;28;20130;-60
2022/06/28 02:51:40;;;;;;;391.42;368.20;;;12.60;99.90;;;;;;5095236;28;20114;-60
2022/06/28 02:54:06;;;;;;;432.20;407.70;;;12.70;99.90;;;;;;5114924;28;20055;-60
2022/06/28 02:56:32;;;;;;;480.27;451.77;;;12.70;99.90;;;;;;5114951;28;20040;-59
2022/06/28 02:58:58;;;;;;;442.08;414.75;;;12.80;99.90;;;;;;5113795;28;20135;-60
2022/06/28 03:01:24;;;;;;;429.85;403.92;;;12.80;99.90;;;;;;5114334;28;20124;-60
2022/06/28 03:03:50;;;;;;;470.35;441.38;;;12.80;99.90;;;;;;5095586;28;20071;-60
2022/06/28 03:06:16;;;;;;;453.33;425.65;;;12.80;99.90;;;;;;5113669;28;20043;-60
2022/06/28 03:08:42;;;;;;;657.40;614.20;;;12.60;99.90;;;;;;5095887;28;20051;-60
2022/06/28 03:11:08;;;;;;;590.38;549.72;;;12.40;99.90;;;;;;5096201;28;20043;-60
2022/06/28 03:13:33;;;;;;;501.95;468.35;;;12.30;99.90;;;;;;5113512;28;20094;-60
2022/06/28 03:15:59;;;;;;;454.05;425.00;;;12.20;99.90;;;;;;5095961;28;20051;-60
2022/06/28 03:18:25;;;;;;;406.10;382.33;;;12.30;99.90;;;;;;5114052;28;20520;-60
2022/06/28 03:20:51;;;;;;;514.65;481.20;;;12.30;99.90;;;;;;5095560;28;20538;-60
2022/06/28 03:23:17;;;;;;;487.33;457.73;;;12.50;99.90;;;;;;5086466;28;20101;-60
2022/06/28 03:25:46;;;;;;;406.20;381.80;;;12.60;99.90;;;;;;5092499;28;20048;-60
2022/06/28 03:28:11;;;;;;;424.58;400.33;;;12.60;99.90;;;;;;5091882;28;20040;-60
2022/06/28 03:30:37;;;;;;;425.08;399.98;;;12.70;99.90;;;;;;5095484;28;20054;-60
2022/06/28 03:33:03;;;;;;;419.13;394.33;;;12.70;99.90;;;;;;5114208;28;20039;-60
2022/06/28 03:35:34;;;;;;;479.80;450.13;;;12.70;99.90;;;;;;5094774;28;20070;-60
2022/06/28 03:38:00;;;;;;;443.27;416.02;;;12.70;99.90;;;;;;5095469;28;20103;-60
2022/06/28 03:40:53;;;;;;;581.83;543.55;;;12.70;99.90;;;;;;5112767;28;20052;-60
2022/06/28 03:43:19;;;;;;;542.60;508.55;;;12.70;99.90;;;;;;5095311;28;20060;-60
2022/06/28 03:45:45;;;;;;;618.83;578.25;;;12.70;99.90;;;;;;5095329;28;20070;-60
2022/06/28 03:48:40;;;;;;;482.90;453.85;;;12.70;99.90;;;;;;5094653;28;20056;-60
2022/06/28 03:51:24;;;;;;;543.55;508.23;;;12.70;99.90;;;;;;5113499;28;20054;-60
2022/06/28 03:54:09;;;;;;;448.40;420.40;;;12.70;99.90;;;;;;5113228;28;20108;-60
2022/06/28 03:56:40;;;;;;;525.45;491.48;;;12.70;99.90;;;;;;5094700;28;20039;-60
2022/06/28 03:59:07;;;;;;;565.85;529.08;;;12.70;99.90;;;;;;5095131;28;20435;-59
2022/06/28 04:01:34;;;;;;;631.25;588.88;;;12.70;99.90;;;;;;5094392;28;20516;-60
2022/06/28 04:04:00;;;;;;;524.30;490.88;;;12.70;99.90;;;;;;5113679;28;20048;-60
2022/06/28 04:06:27;;;;;;;591.75;553.88;;;12.70;99.90;;;;;;5095107;28;20051;-60
2022/06/28 04:08:53;;;;;;;650.42;606.22;;;12.70;99.90;;;;;;5112563;28;20421;-60
2022/06/28 04:11:18;;;;;;;579.78;540.75;;;12.80;99.90;;;;;;5094055;28;20400;-60
2022/06/28 04:13:50;;;;;;;574.83;536.83;;;12.80;99.90;;;;;;5093972;28;20438;-60
2022/06/28 04:16:18;;;;;;;548.85;513.30;;;12.80;99.90;;;;;;5093592;28;20381;-60
2022/06/28 04:18:45;;;;;;;529.00;493.95;;;12.80;99.90;;;;;;5094726;28;20043;-59
2022/06/28 04:21:22;;;;;;;514.88;481.98;;;12.80;99.90;;;;;;5094300;28;20044;-60
2022/06/28 04:23:56;;;;;;;566.08;526.97;;;12.80;99.90;;;;;;5093259;28;20540;-60
2022/06/28 04:26:22;;;;;;;530.40;496.15;;;12.90;99.90;;;;;;5094395;28;20131;-60
2022/06/28 04:28:48;;;;;;;524.92;489.80;;;13.00;99.90;;;;;;5093747;28;20043;-60
2022/06/28 04:31:19;;;;;;;655.25;610.17;;;13.10;99.90;;;;;;5093749;28;20050;-60
2022/06/28 04:33:45;;;;;;;573.00;535.00;;;13.20;99.90;;;;;;5094874;28;20035;-60
2022/06/28 04:36:12;;;;;;;537.65;501.55;;;13.30;99.90;;;;;;5094885;28;20052;-60
2022/06/28 04:38:43;;;;;;;525.90;491.23;;;13.40;99.90;;;;;;5093643;28;20442;-60
2022/06/28 04:41:11;;;;;;;472.63;444.00;;;13.50;99.90;;;;;;5094234;28;20035;-60
2022/06/28 04:43:48;;;;;;;435.80;408.85;;;13.60;99.90;;;;;;5092928;28;20500;-60
2022/06/28 04:46:20;;;;;;;479.38;449.67;;;13.60;99.90;;;;;;5079413;28;20051;-60
2022/06/28 04:48:48;;;;;;;595.30;555.53;;;13.60;99.90;;;;;;5095018;28;20110;-60
2022/06/28 04:51:15;;;;;;;594.88;555.95;;;13.60;99.90;;;;;;5093546;28;20135;-60
2022/06/28 04:53:44;;;;;;;551.38;517.47;;;13.40;99.90;;;;;;5094708;28;20066;-60
2022/06/28 04:56:12;;;;;;;557.58;521.05;;;13.40;99.90;;;;;;5094572;28;20046;-60
2022/06/28 04:58:43;;;;;;;443.67;416.25;;;13.40;99.90;;;;;;5093786;28;20077;-60
2022/06/28 05:01:09;;;;;;;414.40;388.85;;;13.30;99.90;;;;;;5113144;28;20078;-60
2022/06/28 05:03:35;;;;;;;511.30;479.63;;;13.30;99.90;;;;;;5094695;28;20051;-60
2022/06/28 05:06:01;;;;;;;678.22;632.03;;;13.30;99.90;;;;;;5093756;28;20052;-60
2022/06/28 05:08:27;;;;;;;596.60;559.40;;;13.30;99.90;;;;;;5112879;28;20047;-60
2022/06/28 05:11:01;;;;;;;;;;;13.30;99.90;;;;;;5095138;28;20108;-60
2022/06/28 05:13:35;;;;;;;460.23;434.42;;;13.30;99.90;;;;;;5092849;28;19973;-60
2022/06/28 05:16:01;;;;;;;437.00;412.98;;;13.40;99.90;;;;;;5094664;28;20040;-60
2022/06/28 05:18:27;;;;;;;605.30;565.38;;;13.40;99.90;;;;;;5094370;28;20043;-60
2022/06/28 05:20:53;;;;;;;511.55;481.45;;;13.50;99.90;;;;;;5093307;28;20409;-59
2022/06/28 05:23:19;;;;;;;497.50;466.80;;;13.60;99.90;;;;;;5090454;28;20051;-60
2022/06/28 05:26:05;;;;;;;556.10;522.10;;;13.70;99.90;;;;;;5091575;28;20052;-60
2022/06/28 05:28:32;;;;;;;570.85;534.35;;;13.80;99.90;;;;;;5077284;28;20432;-59
2022/06/28 05:30:58;;;;;;;710.55;661.75;;;13.90;99.90;;;;;;5085518;28;20035;-60
2022/06/28 05:33:24;;;;;;;696.88;650.42;;;14.00;99.90;;;;;;5097415;28;20048;-60
2022/06/28 05:35:51;;;;;;;673.88;628.05;;;14.00;99.90;;;;;;5097941;28;20040;-60
2022/06/28 05:38:16;;;;;;;638.33;593.42;;;14.10;99.90;;;;;;5116305;28;20043;-60
2022/06/28 05:40:44;;;;;;;777.90;723.00;;;14.20;99.90;;;;;;5115381;28;20070;-60
2022/06/28 05:43:10;;;;;;;594.63;558.47;;;14.40;99.90;;;;;;5097460;28;20485;-60
2022/06/28 05:45:36;;;;;;;651.17;608.67;;;14.50;99.90;;;;;;5097819;28;20079;-60
2022/06/28 05:48:02;;;;;;;795.25;735.55;;;14.60;99.90;;;;;;5096653;28;20044;-60
2022/06/28 05:50:29;;;;;;;749.80;697.58;;;14.80;99.90;;;;;;5115745;28;20048;-60
2022/06/28 05:52:55;;;;;;;856.15;793.75;;;14.90;99.90;;;;;;5097967;28;20086;-60
2022/06/28 05:55:21;;;;;;;721.70;674.45;;;15.00;99.90;;;;;;5115336;28;20492;-60
2022/06/28 05:57:48;;;;;;;816.40;759.70;;;15.20;99.90;;;;;;5097099;28;20071;-60
2022/06/28 06:00:15;;;;;;;609.05;573.22;;;15.30;99.90;;;;;;5114823;28;20063;-60
2022/06/28 06:02:41;;;;;;;791.60;738.33;;;15.40;99.90;;;;;;5115149;28;20521;-60
2022/06/28 06:05:08;;;;;;;847.25;784.15;;;15.50;99.90;;;;;;5114342;28;20119;-60
2022/06/28 06:07:34;;;;;;;860.92;792.67;;;15.60;99.90;;;;;;5097153;28;20047;-60
2022/06/28 06:10:02;;;;;;;556.83;522.08;;;15.70;99.90;;;;;;5079646;28;20485;-60
2022/06/28 06:12:29;;;;;;;458.73;432.30;;;15.80;99.90;;;;;;5079953;28;20522;-60
2022/06/28 06:14:55;;;;;;;714.85;666.40;;;15.90;99.90;;;;;;5115074;28;20051;-60
2022/06/28 06:17:21;;;;;;;480.27;454.35;;;16.00;99.90;;;;;;5114607;28;20104;-60
2022/06/28 06:19:47;;;;;;;719.45;672.17;;;16.10;99.90;;;;;;5097159;28;20048;-59
2022/06/28 06:22:13;;;;;;;744.42;693.90;;;16.20;99.90;;;;;;5113209;28;20514;-60
2022/06/28 06:24:39;;;;;;;554.42;521.50;;;16.20;99.90;;;;;;5114921;28;20047;-60
2022/06/28 06:27:08;;;;;;;336.45;318.92;;;16.40;99.90;;;;;;5096959;28;20132;-60
2022/06/28 06:29:35;;;;;;;222.93;211.82;;;16.50;99.90;;;;;;5096083;28;20043;-60
2022/06/28 06:32:02;;;;;;;444.88;420.95;;;16.50;99.90;;;;;;5096854;28;20544;-60
2022/06/28 06:34:54;;;;;;;551.30;518.47;;;16.70;99.90;;;;;;5113601;28;20048;-60
2022/06/28 06:37:20;;;;;;;182.75;173.60;;;16.80;99.90;;;;;;5096437;28;20043;-60
2022/06/28 06:39:46;;;;;;;278.52;265.23;;;;;;;;;;5095675;28;20047;-60
2022/06/28 06:42:11;;;;;;;301.30;285.88;;;17.10;99.90;;;;;;5096075;28;20058;-60
2022/06/28 06:44:44;;;;;;;;;;;17.10;99.90;;;;;;5096642;28;20044;-60
2022/06/28 06:47:10;;;;;;;193.73;184.27;;;17.30;99.90;;;;;;5096795;28;20285;-60
2022/06/28 06:49:36;;;;;;;323.13;305.23;;;17.40;99.90;;;;;;5114467;28;20044;-60
2022/06/28 06:52:02;;;;;;;283.65;270.50;;;17.50;99.90;;;;;;5113857;28;20051;-60
2022/06/28 06:54:28;;;;;;;141.77;135.23;;;17.50;99.90;;;;;;5096436;28;20112;-60
2022/06/28 06:56:54;;;;;;;320.67;305.33;;;17.60;99.90;;;;;;5096190;28;20477;-60
2022/06/28 06:59:20;;;;;;;156.98;149.23;;;17.50;99.90;;;;;;5113755;28;20031;-60
2022/06/28 07:01:47;;;;;;;439.60;414.20;;;17.60;99.90;;;;;;5096364;28;20393;-60
2022/06/28 07:04:20;;;;;;;218.48;207.20;;;17.70;99.90;;;;;;5095552;28;20516;-60
2022/06/28 07:06:45;;;;;;;456.23;428.95;;;17.60;99.90;;;;;;5114374;28;20094;-60
2022/06/28 07:09:11;;;;;;;304.77;289.75;;;17.70;99.90;;;;;;5113861;28;20040;-60
2022/06/28 07:11:37;;;;;;;267.95;254.45;;;17.70;99.90;;;;;;5094880;28;20035;-60
2022/06/28 07:14:05;;;;;;;249.00;236.60;;;17.60;99.90;;;;;;5095951;28;20063;-60
2022/06/28 07:16:31;;;;;;;327.58;311.08;;;17.50;99.90;;;;;;5113033;28;20047;-60
2022/06/28 07:18:58;;;;;;;219.43;208.13;;;17.50;99.90;;;;;;5095350;28;20048;-60
2022/06/28 07:21:24;;;;;;;187.70;178.48;;;17.40;99.90;;;;;;5114643;28;20044;-60
2022/06/28 07:23:50;;;;;;;318.48;302.60;;;17.40;99.90;;;;;;5095610;28;20493;-60
2022/06/28 07:26:18;;;;;;;219.38;208.50;;;17.40;99.90;;;;;;5094466;28;20484;-60
2022/06/28 07:28:45;;;;;;;391.40;369.88;;;17.30;99.90;;;;;;5114238;28;20433;-60
2022/06/28 07:31:11;;;;;;;390.85;369.48;;;17.50;99.90;;;;;;5095874;28;20043;-60
2022/06/28 07:33:37;;;;;;;521.85;489.80;;;17.80;99.90;;;;;;5094416;28;20099;-60
2022/06/28 07:36:03;;;;;;;316.90;301.48;;;18.10;99.90;;;;;;5094604;28;20044;-60
2022/06/28 07:38:29;;;;;;;270.08;257.52;;;18.20;99.90;;;;;;5095123;28;20043;-60
2022/06/28 07:41:19;;;;;;;317.45;301.15;;;;;;;;;;5111835;28;20119;-60
2022/06/28 07:44:11;;;;;;;345.23;326.42;;;18.40;99.90;;;;;;5112273;28;20485;-61
2022/06/28 07:46:37;;;;;;;380.50;360.60;;;18.70;99.90;;;;;;5094664;28;20247;-61
2022/06/28 07:49:03;;;;;;;268.88;254.80;;;18.50;99.90;;;;;;5111129;28;20048;-60
2022/06/28 07:54:16;;;;;;;309.38;294.67;;;18.70;99.90;;;;;;5089321;28;20043;-61
2022/06/28 07:56:53;;;;;;;171.57;163.82;;;18.60;99.90;;;;;;5094593;28;20044;-60
2022/06/28 07:59:19;;;;;;;492.27;463.50;;;18.60;99.90;;;;;;5094973;28;20066;-61
2022/06/28 08:01:46;;;;;;;403.95;383.17;;;18.90;99.90;;;;;;5106487;28;20402;-60
2022/06/28 08:04:20;;;;;;;279.63;265.83;;;18.80;99.90;;;;;;5074273;28;20059;-60
2022/06/28 08:06:46;;;;;;;215.02;205.15;;;18.70;99.90;;;;;;5075148;28;20036;-60
2022/06/28 08:09:13;;;;;;;273.00;258.90;;;18.50;99.90;;;;;;5074029;28;20044;-60
2022/06/28 08:11:39;;;;;;;301.23;286.33;;;18.30;99.90;;;;;;5094041;28;20039;-60
2022/06/28 08:14:08;;;;;;;205.73;196.25;;;18.10;99.90;;;;;;5095001;28;20051;-60
2022/06/28 08:16:36;;;;;;;297.02;281.85;;;17.90;99.90;;;;;;5094506;28;20043;-60
2022/06/28 08:19:02;;;;;;;369.63;350.25;;;18.00;99.90;;;;;;5112913;28;20047;-60
2022/06/28 08:21:32;;;;;;;341.75;325.70;;;18.00;99.90;;;;;;5095395;28;20047;-60
2022/06/28 08:23:58;;;;;;;436.50;414.17;;;18.10;99.90;;;;;;5094264;28;20051;-60
2022/06/28 08:26:25;;;;;;;513.35;485.30;;;18.50;99.90;;;;;;5094991;28;20366;-60
2022/06/28 08:28:50;;;;;;;451.98;424.45;;;18.90;99.90;;;;;;5110880;28;20108;-60
2022/06/28 08:31:16;;;;;;;505.38;478.63;;;19.00;99.90;;;;;;5113292;28;20044;-60
2022/06/28 08:33:42;;;;;;;508.63;481.27;;;19.10;99.90;;;;;;5113064;28;20039;-60
2022/06/28 08:36:08;;;;;;;447.88;421.80;;;19.20;99.90;;;;;;5111961;28;20062;-60
2022/06/28 08:38:34;;;;;;;401.77;382.42;;;18.70;99.90;;;;;;5113342;28;20051;-60
2022/06/28 08:41:01;;;;;;;384.33;366.20;;;18.70;99.90;;;;;;5113036;28;20396;-59
2022/06/28 08:43:31;;;;;;;492.83;466.55;;;18.70;99.90;;;;;;5112298;28;20104;-60
2022/06/28 08:45:56;;;;;;;449.25;427.05;;;19.00;99.90;;;;;;5112809;28;20043;-60
2022/06/28 08:48:33;;;;;;;400.30;380.85;;;19.20;99.90;;;;;;5112714;28;20112;-60
2022/06/28 08:51:00;;;;;;;295.00;281.40;;;19.40;99.90;;;;;;5111877;28;20167;-60
2022/06/28 08:53:27;;;;;;;345.50;327.63;;;19.80;99.90;;;;;;5113057;28;20075;-60
2022/06/28 08:55:53;;;;;;;379.52;361.75;;;19.90;99.90;;;;;;5112487;28;20537;-60
2022/06/28 08:58:19;;;;;;;390.73;372.40;;;19.90;99.90;;;;;;5112267;28;20111;-60
2022/06/28 09:00:46;;;;;;;378.10;359.73;;;19.70;99.90;;;;;;5113312;28;20123;-59
2022/06/28 09:03:12;;;;;;;333.73;317.88;;;19.60;99.90;;;;;;5115300;28;20054;-60
2022/06/28 09:05:38;;;;;;;454.02;431.08;;;19.60;99.90;;;;;;5116022;28;20130;-60
2022/06/28 09:08:04;;;;;;;430.48;409.17;;;19.20;99.90;;;;;;5116717;28;20046;-60
2022/06/28 09:10:29;;;;;;;334.08;318.38;;;19.20;99.90;;;;;;5116430;28;20048;-60
2022/06/28 09:13:08;;;;;;;402.85;383.45;;;19.40;99.90;;;;;;5115550;28;20052;-60
2022/06/28 09:15:49;;;;;;;400.73;379.73;;;19.30;99.90;;;;;;5117007;28;20047;-60
2022/06/28 09:18:17;;;;;;;1999.90;999.90;;;19.30;99.90;;;;;;5115582;28;20597;-60
2022/06/28 09:20:43;;;;;;;333.60;318.10;;;19.40;99.90;;;;;;5116550;28;20047;-60
2022/06/28 09:23:27;;;;;;;326.05;309.52;;;19.70;99.90;;;;;;5116403;28;20553;-60
2022/06/28 09:25:57;;;;;;;304.40;290.50;;;19.70;99.90;;;;;;5115452;28;20555;-60
2022/06/28 09:28:26;;;;;;;490.02;463.35;;;19.60;99.90;;;;;;5116383;28;20048;-60
2022/06/28 09:30:52;;;;;;;527.28;498.25;;;19.60;99.90;;;;;;5115620;28;20406;-59
2022/06/28 09:33:26;;;;;;;415.35;394.80;;;19.70;99.90;;;;;;5115603;28;20048;-60
2022/06/28 09:35:53;;;;;;;339.42;323.48;;;20.10;99.90;;;;;;5116512;28;20043;-60
2022/06/28 09:38:32;;;;;;;505.58;478.80;;;20.50;99.90;;;;;;5116028;28;20047;-60
2022/06/28 09:41:00;;;;;;;462.95;439.67;;;20.70;99.90;;;;;;5115810;28;20052;-60
2022/06/28 09:43:32;;;;;;;347.13;330.73;;;21.20;99.90;;;;;;5115966;28;20484;-60
2022/06/28 09:46:01;;;;;;;373.77;356.45;;;21.50;99.90;;;;;;5115747;28;20049;-60
2022/06/28 09:48:32;;;;;;;474.65;450.60;;;21.60;99.90;;;;;;5115822;28;20119;-60
2022/06/28 09:50:58;;;;;;;459.65;436.33;;;21.90;99.90;;;;;;5116113;28;20048;-60
2022/06/28 09:53:27;;;;;;;391.77;372.55;;;22.00;99.90;;;;;;5114908;28;20397;-60
2022/06/28 09:55:55;;;;;;;453.85;431.13;;;21.60;99.90;;;;;;5115789;28;20047;-60
2022/06/28 09:58:22;;;;;;;494.67;469.00;;;21.40;99.90;;;;;;5116149;28;20040;-60
2022/06/28 10:00:49;;;;;;;636.20;598.63;;;21.60;99.90;;;;;;5114585;28;20052;-60
2022/06/28 10:03:16;;;;;;;607.63;572.03;;;21.90;99.90;;;;;;5110140;28;20176;-60
2022/06/28 10:05:41;;;;;;;533.85;504.15;;;22.30;99.90;;;;;;5111756;28;20044;-60
2022/06/28 10:08:07;;;;;;;649.25;609.20;;;22.70;99.90;;;;;;5113178;28;20408;-60
2022/06/28 10:10:33;;;;;;;509.25;482.60;;;23.10;99.90;;;;;;5114548;28;20045;-60
2022/06/28 10:15:53;;;;;;;1999.90;999.90;;;23.10;99.90;;;;;;5113983;28;20173;-60
2022/06/28 10:18:21;;;;;;;1999.90;999.90;;;23.10;99.90;;;;;;5094748;28;20032;-60
2022/06/28 10:20:48;;;;;;;1999.90;999.90;;;23.20;99.90;;;;;;5115048;28;20048;-60
2022/06/28 10:23:27;;;;;;;1999.90;999.90;;;23.10;99.90;;;;;;5113967;28;20031;-60
2022/06/28 10:26:14;;;;;;;538.20;509.10;;;23.10;99.10;;;;;;5115395;28;20082;-60
2022/06/28 10:28:45;;;;;;;274.40;262.50;;;23.00;99.90;;;;;;5114495;28;20043;-60
2022/06/28 10:31:20;;;;;;;357.45;340.55;;;22.90;99.90;;;;;;5114356;28;20139;-60
2022/06/28 10:33:48;;;;;;;192.30;183.35;;;22.80;99.90;;;;;;5114476;28;20088;-60
2022/06/28 10:36:16;;;;;;;603.85;568.95;;;22.50;99.90;;;;;;5113880;28;20043;-60
2022/06/28 10:39:11;;;;;;;196.18;187.70;;;22.30;99.90;;;;;;5114903;28;20156;-60
2022/06/28 10:41:41;;;;;;;382.63;364.33;;;22.10;99.90;;;;;;5114755;28;20127;-60
2022/06/28 10:44:08;;;;;;;261.50;250.13;;;22.20;99.90;;;;;;5098372;28;20432;-60
2022/06/28 10:46:34;;;;;;;248.73;237.88;;;22.30;99.90;;;;;;5105317;28;20094;-60
2022/06/28 10:49:03;;;;;;;243.75;233.27;;;21.90;98.20;;;;;;5098299;28;20048;-60
2022/06/28 10:51:29;;;;;;;333.02;317.13;;;21.70;99.90;;;;;;5113236;28;20070;-60
2022/06/28 10:54:01;;;;;;;394.67;374.30;;;21.30;99.90;;;;;;5114457;28;20044;-60
2022/06/28 10:56:29;;;;;;;;;;;21.10;99.90;;;;;;5114452;28;20051;-60
2022/06/28 10:58:59;;;;;;;1999.90;999.90;;;21.00;99.90;;;;;;5113775;28;19962;-60
2022/06/28 11:01:40;;;;;;;1999.90;999.90;;;21.30;99.90;;;;;;5114265;28;20087;-60
2022/06/28 11:04:10;;;;;;;1594.20;839.28;;;22.00;99.40;;;;;;5113724;28;20047;-60
2022/06/28 11:06:46;;;;;;;297.38;283.05;;;22.30;99.90;;;;;;5113869;28;20439;-60
2022/06/28 11:09:18;;;;;;;328.98;313.55;;;22.60;97.40;;;;;;5113412;28;20447;-60
2022/06/28 11:12:04;;;;;;;303.45;289.33;;;23.40;96.30;;;;;;5113526;28;20432;-60
2022/06/28 11:14:31;;;;;;;293.90;280.67;;;23.70;96.60;;;;;;5106403;28;20087;-60
2022/06/28 11:16:58;;;;;;;338.20;322.17;;;24.40;96.80;;;;;;5113306;28;20524;-60
2022/06/28 11:19:24;;;;;;;139.20;133.30;;;25.20;95.40;;;;;;5112216;28;20040;-60
2022/06/28 11:21:55;;;;;;;285.40;272.42;;;26.10;94.20;;;;;;5114283;28;20118;-60
2022/06/28 11:24:23;;;;;;;343.15;326.90;;;26.90;92.00;;;;;;5113479;28;20047;-60
2022/06/28 11:29:34;;;;;;;302.40;288.63;;;26.80;86.80;;;;;;5113462;28;20048;-60
2022/06/28 11:32:00;;;;;;;175.10;166.82;;;26.60;89.40;;;;;;5093993;28;20047;-60
2022/06/28 11:34:26;;;;;;;203.05;194.13;;;26.80;87.20;;;;;;5113551;28;20437;-60
2022/06/28 11:36:57;;;;;;;346.25;329.63;;;26.70;82.40;;;;;;5113466;28;20051;-60
2022/06/28 11:39:24;;;;;;;257.23;245.53;;;26.30;85.10;;;;;;5112887;28;20074;-60
2022/06/28 11:41:51;;;;;;;308.52;293.02;;;26.50;88.40;;;;;;5094989;28;20043;-60
2022/06/28 11:44:19;;;;;;;276.55;263.85;;;26.60;83.70;;;;;;5113699;28;20051;-60
2022/06/28 11:46:46;;;;;;;274.95;262.58;;;26.60;78.00;;;;;;5113189;28;20044;-60
2022/06/28 11:49:12;;;;;;;354.38;337.00;;;25.90;80.20;;;;;;5113855;28;20048;-60
2022/06/28 11:51:41;;;;;;;355.95;338.50;;;25.80;81.70;;;;;;5113452;28;20035;-60
2022/06/28 11:54:08;;;;;;;330.95;314.83;;;25.50;84.90;;;;;;5094805;28;20048;-60
2022/06/28 11:56:43;;;;;;;355.38;337.85;;;25.50;86.60;;;;;;5113544;28;20042;-60
2022/06/28 11:59:09;;;;;;;368.65;350.90;;;26.00;84.20;;;;;;5113515;28;20096;-60
2022/06/28 12:01:41;;;;;;;545.55;515.28;;;25.50;85.30;;;;;;5113000;28;20047;-60
2022/06/28 12:04:09;;;;;;;450.83;427.63;;;24.90;81.20;;;;;;5113477;28;20450;-60
2022/06/28 12:06:39;;;;;;;517.30;488.50;;;24.50;81.20;;;;;;5113172;28;20398;-60
2022/06/28 12:09:09;;;;;;;423.58;401.95;;;24.20;84.40;;;;;;5113120;28;20048;-61
2022/06/28 12:11:39;;;;;;;515.53;486.92;;;24.40;87.80;;;;;;5113579;28;20088;-60
2022/06/28 12:14:08;;;;;;;455.65;431.70;;;25.00;89.20;;;;;;5111532;28;20404;-60
2022/06/28 12:16:37;;;;;;;356.42;339.13;;;25.70;87.50;;;;;;5113244;28;20051;-60
2022/06/28 12:19:06;;;;;;;352.13;332.38;;;26.30;85.60;;;;;;5113803;28;20055;-60
2022/06/28 12:21:32;;;;;;;423.65;402.30;;;26.30;78.20;;;;;;5095544;28;20052;-61
2022/06/28 12:23:58;;;;;;;318.70;302.80;;;25.70;79.40;;;;;;5107001;28;20058;-61
2022/06/28 12:26:40;;;;;;;432.75;410.02;;;25.20;81.10;;;;;;5093086;28;20353;-61
2022/06/28 12:29:06;;;;;;;259.88;247.68;;;24.70;84.20;;;;;;5098005;28;20477;-60
2022/06/28 12:31:31;;;;;;;349.00;331.85;;;24.50;86.60;;;;;;5112998;28;20034;-60